createdAt,value
2022-08-10T00:01:51.307Z,20.88
2022-08-10T00:04:22.418Z,20.83
2022-08-10T00:06:53.389Z,20.51
2022-08-10T00:09:22.301Z,20.72
2022-08-10T00:11:50.558Z,20.39
2022-08-10T00:14:18.861Z,20.24
2022-08-10T00:16:47.097Z,20.10
2022-08-10T00:19:16.744Z,20.48
2022-08-10T00:21:48.690Z,20.89
2022-08-10T00:24:17.032Z,20.89
2022-08-10T00:28:02.114Z,20.68
2022-08-10T00:29:33.285Z,20.34
2022-08-10T00:32:01.513Z,20.16
2022-08-10T00:34:30.048Z,20.34
2022-08-10T00:37:00.702Z,20.74
2022-08-10T00:39:29.574Z,20.70
2022-08-10T00:42:01.957Z,20.80
2022-08-10T00:44:35.558Z,21.07
2022-08-10T00:47:03.600Z,21.14
2022-08-10T00:49:31.813Z,21.14
2022-08-10T00:52:02.245Z,20.93
2022-08-10T00:54:30.998Z,20.54
2022-08-10T00:57:17.514Z,20.50
2022-08-10T00:59:59.021Z,20.04
2022-08-10T01:02:30.840Z,19.97
2022-08-10T01:05:02.238Z,20.40
2022-08-10T01:07:43.867Z,20.52
2022-08-10T01:10:21.839Z,20.37
2022-08-10T01:12:55.229Z,20.16
2022-08-10T01:15:28.526Z,20.66
2022-08-10T01:18:02.847Z,20.89
2022-08-10T01:20:40.193Z,20.85
2022-08-10T01:23:46.428Z,20.80
2022-08-10T01:26:37.257Z,20.18
2022-08-10T01:29:43.093Z,19.79
2022-08-10T01:32:15.979Z,19.66
2022-08-10T01:34:49.717Z,19.66
2022-08-10T01:37:23.059Z,19.67
2022-08-10T01:39:57.142Z,19.65
2022-08-10T01:42:26.783Z,19.51
2022-08-10T01:44:58.532Z,20.02
2022-08-10T01:47:49.626Z,20.13
2022-08-10T01:50:22.710Z,20.11
2022-08-10T01:52:54.265Z,20.45
2022-08-10T01:55:24.317Z,20.49
2022-08-10T01:57:54.756Z,20.02
2022-08-10T02:00:23.022Z,19.54
2022-08-10T02:02:53.830Z,18.94
2022-08-10T02:05:25.385Z,18.94
2022-08-10T02:07:55.752Z,19.20
2022-08-10T02:10:25.505Z,18.69
2022-08-10T02:12:56.650Z,19.26
2022-08-10T02:15:28.850Z,19.46
2022-08-10T02:18:02.243Z,19.82
2022-08-10T02:20:35.361Z,20.05
2022-08-10T02:23:08.526Z,20.21
2022-08-10T02:25:41.537Z,19.95
2022-08-10T02:28:27.310Z,19.11
2022-08-10T02:31:01.900Z,19.36
2022-08-10T02:33:36.933Z,19.59
2022-08-10T02:36:09.075Z,19.55
2022-08-10T02:38:58.437Z,18.72
2022-08-10T02:45:12.481Z,18.85
2022-08-10T02:45:18.089Z,19.17
2022-08-10T02:47:23.753Z,19.63
2022-08-10T02:50:00.141Z,19.78
2022-08-10T02:52:36.827Z,19.85
2022-08-10T02:55:18.614Z,19.82
2022-08-10T02:58:16.768Z,19.78
2022-08-10T03:00:46.487Z,19.38
2022-08-10T03:03:20.402Z,19.20
2022-08-10T03:05:54.968Z,19.14
2022-08-10T03:08:28.568Z,18.91
2022-08-10T03:11:00.770Z,19.03
2022-08-10T03:13:31.529Z,18.22
2022-08-10T03:16:01.689Z,17.73
2022-08-10T03:18:31.404Z,18.03
2022-08-10T03:21:01.142Z,17.83
2022-08-10T03:23:30.329Z,18.32
2022-08-10T03:26:02.004Z,18.82
2022-08-10T03:28:32.014Z,19.13
2022-08-10T03:31:02.888Z,19.27
2022-08-10T03:33:34.240Z,19.28
2022-08-10T03:36:43.986Z,18.98
2022-08-10T03:38:52.588Z,19.05
2022-08-10T03:41:35.657Z,18.88
2022-08-10T03:44:06.136Z,18.94
2022-08-10T03:46:36.739Z,18.94
2022-08-10T03:49:07.275Z,18.72
2022-08-10T03:51:38.856Z,18.70
2022-08-10T03:54:08.333Z,18.73
2022-08-10T03:56:39.056Z,18.86
2022-08-10T03:59:09.265Z,19.00
2022-08-10T04:02:41.930Z,19.02
2022-08-10T04:04:26.198Z,18.74
2022-08-10T04:06:57.925Z,18.62
2022-08-10T04:09:54.615Z,18.77
2022-08-10T04:12:21.054Z,18.88
2022-08-10T04:14:52.433Z,18.94
2022-08-10T04:18:04.156Z,18.86
2022-08-10T04:20:19.587Z,18.81
2022-08-10T04:22:53.469Z,18.82
2022-08-10T04:25:23.848Z,18.82
2022-08-10T04:27:53.409Z,18.77
2022-08-10T04:30:21.685Z,18.84
2022-08-10T04:32:54.765Z,18.88
2022-08-10T04:36:04.443Z,18.86
2022-08-10T04:38:36.731Z,18.08
2022-08-10T04:41:18.041Z,18.39
2022-08-10T04:43:47.405Z,18.53
2022-08-10T04:46:55.190Z,18.40
2022-08-10T04:49:04.825Z,18.12
2022-08-10T04:51:32.978Z,18.28
2022-08-10T04:54:04.057Z,18.58
2022-08-10T04:56:38.552Z,18.72
2022-08-10T04:59:07.928Z,18.87
2022-08-10T05:02:21.801Z,18.96
2022-08-10T05:04:36.023Z,18.98
2022-08-10T05:07:05.890Z,18.97
2022-08-10T05:10:02.394Z,18.62
2022-08-10T05:12:23.137Z,18.88
2022-08-10T05:14:52.027Z,19.01
2022-08-10T05:17:20.402Z,18.82
2022-08-10T05:20:04.201Z,18.71
2022-08-10T05:22:36.736Z,18.68
2022-08-10T05:25:09.040Z,18.99
2022-08-10T05:27:37.232Z,19.28
2022-08-10T05:30:09.473Z,19.45
2022-08-10T05:32:56.301Z,19.54
2022-08-10T05:35:28.397Z,19.47
2022-08-10T05:38:10.038Z,19.65
2022-08-10T05:40:46.511Z,19.87
2022-08-10T05:43:18.173Z,19.48
2022-08-10T05:46:19.144Z,19.78
2022-08-10T05:48:54.954Z,19.96
2022-08-10T05:51:24.440Z,19.96
2022-08-10T05:54:02.576Z,20.18
2022-08-10T05:56:56.844Z,20.34
2022-08-10T06:00:11.182Z,20.08
2022-08-10T06:02:32.733Z,20.52
2022-08-10T06:05:08.425Z,20.29
2022-08-10T06:07:40.073Z,20.32
2022-08-10T06:10:12.350Z,20.50
2022-08-10T06:12:55.530Z,20.61
2022-08-10T06:15:52.135Z,21.02
2022-08-10T06:18:15.564Z,21.20
2022-08-10T06:20:47.712Z,21.26
2022-08-10T06:23:15.688Z,21.36
2022-08-10T06:26:10.807Z,21.53
2022-08-10T06:28:37.692Z,21.00
2022-08-10T06:31:08.067Z,21.47
2022-08-10T06:33:40.374Z,21.08
2022-08-10T06:36:09.913Z,21.47
2022-08-10T06:38:40.626Z,21.70
2022-08-10T06:41:19.458Z,22.08
2022-08-10T06:43:56.661Z,21.30
2022-08-10T06:46:27.504Z,21.19
2022-08-10T06:49:00.107Z,21.34
2022-08-10T06:51:31.706Z,21.33
2022-08-10T06:54:04.073Z,21.14
2022-08-10T06:56:36.535Z,21.31
2022-08-10T06:59:14.591Z,21.68
2022-08-10T07:01:53.659Z,21.95
2022-08-10T07:04:31.921Z,21.92
2022-08-10T07:07:04.200Z,21.93
2022-08-10T07:09:34.279Z,22.05
2022-08-10T07:12:07.816Z,22.81
2022-08-10T07:14:42.045Z,23.33
2022-08-10T07:17:15.203Z,23.56
2022-08-10T07:19:50.065Z,23.39
2022-08-10T07:23:04.839Z,23.60
2022-08-10T07:25:13.221Z,23.21
2022-08-10T07:28:00.043Z,23.56
2022-08-10T07:30:33.191Z,23.92
2022-08-10T07:33:03.131Z,23.40
2022-08-10T07:35:41.882Z,24.00
2022-08-10T07:38:17.929Z,24.73
2022-08-10T07:40:47.245Z,24.81
2022-08-10T07:43:17.389Z,25.17
2022-08-10T07:45:47.892Z,25.65
2022-08-10T07:48:18.388Z,25.62
2022-08-10T07:50:48.174Z,25.99
2022-08-10T07:53:28.063Z,26.13
2022-08-10T07:56:02.059Z,26.43
2022-08-10T07:58:37.876Z,26.80
2022-08-10T08:01:07.299Z,26.77
2022-08-10T08:03:35.673Z,27.10
2022-08-10T08:06:11.762Z,27.31
2022-08-10T08:08:43.764Z,28.00
2022-08-10T08:11:26.245Z,28.37
2022-08-10T08:13:56.386Z,28.42
2022-08-10T08:16:26.696Z,28.14
2022-08-10T08:19:26.817Z,28.40
2022-08-10T08:24:05.896Z,29.06
2022-08-10T08:24:36.473Z,28.99
2022-08-10T08:27:07.713Z,29.07
2022-08-10T08:29:40.122Z,29.51
2022-08-10T08:32:11.522Z,27.82
2022-08-10T08:34:41.978Z,28.79
2022-08-10T08:37:11.816Z,29.43
2022-08-10T08:39:41.505Z,29.82
2022-08-10T08:42:36.053Z,30.04
2022-08-10T08:45:14.746Z,30.36
2022-08-10T08:48:09.316Z,31.02
2022-08-10T08:50:57.291Z,30.66
2022-08-10T08:54:02.007Z,30.33
2022-08-10T08:56:40.817Z,30.88
2022-08-10T08:59:26.451Z,31.22
2022-08-10T09:02:10.496Z,31.25
2022-08-10T09:05:01.319Z,28.77
2022-08-10T09:08:00.314Z,30.58
2022-08-10T09:10:42.484Z,32.19
2022-08-10T09:13:26.599Z,30.96
2022-08-10T09:16:04.240Z,31.04
2022-08-10T09:18:41.241Z,31.61
2022-08-10T09:21:18.804Z,31.26
2022-08-10T09:24:05.241Z,32.03
2022-08-10T09:26:43.795Z,31.86
2022-08-10T09:29:16.850Z,31.33
2022-08-10T09:32:55.037Z,31.96
2022-08-10T09:36:25.565Z,32.04
2022-08-10T09:38:02.116Z,31.67
2022-08-10T09:41:00.074Z,31.99
2022-08-10T09:43:41.112Z,29.50
2022-08-10T09:46:29.203Z,29.67
2022-08-10T09:49:07.129Z,31.73
2022-08-10T09:51:46.810Z,32.28
2022-08-10T09:54:44.006Z,32.89
2022-08-10T09:57:46.311Z,30.95
2022-08-10T10:00:12.756Z,31.86
2022-08-10T10:02:52.621Z,30.85
2022-08-10T10:05:32.071Z,31.81
2022-08-10T10:08:10.531Z,31.82
2022-08-10T10:10:52.368Z,30.78
2022-08-10T10:13:50.059Z,30.09
2022-08-10T10:16:29.348Z,29.65
2022-08-10T10:19:08.988Z,30.35
2022-08-10T10:21:54.215Z,30.82
2022-08-10T10:24:34.083Z,29.64
2022-08-10T10:27:16.342Z,30.65
2022-08-10T10:29:56.414Z,30.00
2022-08-10T10:32:36.893Z,30.90
2022-08-10T10:35:16.478Z,30.69
2022-08-10T10:38:01.103Z,30.04
2022-08-10T10:40:38.711Z,29.47
2022-08-10T10:43:18.893Z,30.62
2022-08-10T10:45:58.944Z,30.40
2022-08-10T10:48:39.472Z,29.65
2022-08-10T10:51:13.667Z,31.15
2022-08-10T10:53:48.839Z,30.75
2022-08-10T10:56:37.052Z,30.07
2022-08-10T10:59:35.490Z,31.11
2022-08-10T11:02:18.460Z,31.22
2022-08-10T11:04:59.029Z,31.60
2022-08-10T11:07:35.515Z,31.28
2022-08-10T11:10:31.897Z,30.11
2022-08-10T11:14:26.843Z,30.10
2022-08-10T11:16:18.184Z,31.08
2022-08-10T11:19:04.537Z,30.94
2022-08-10T11:21:46.706Z,30.26
2022-08-10T11:24:42.969Z,30.55
2022-08-10T11:27:21.571Z,31.50
2022-08-10T11:30:07.022Z,32.06
2022-08-10T11:32:46.630Z,31.23
2022-08-10T11:35:24.159Z,31.00
2022-08-10T11:38:30.079Z,30.91
2022-08-10T11:41:05.620Z,32.20
2022-08-10T11:43:56.950Z,30.78
2022-08-10T11:46:31.545Z,31.35
2022-08-10T11:49:12.628Z,31.85
2022-08-10T11:51:46.202Z,32.07
2022-08-10T11:54:26.378Z,32.47
2022-08-10T11:57:02.228Z,32.80
2022-08-10T11:59:50.835Z,32.49
2022-08-10T12:02:32.616Z,32.08
2022-08-10T12:05:08.039Z,32.25
2022-08-10T12:10:03.805Z,33.01
2022-08-10T12:10:29.413Z,31.75
2022-08-10T12:13:06.000Z,31.22
2022-08-10T12:15:41.211Z,30.96
2022-08-10T12:18:16.466Z,30.46
2022-08-10T12:20:50.853Z,30.64
2022-08-10T12:23:23.515Z,32.77
2022-08-10T12:26:07.520Z,31.94
2022-08-10T12:28:50.402Z,32.62
2022-08-10T12:31:24.503Z,31.89
2022-08-10T12:34:05.727Z,32.70
2022-08-10T12:36:42.492Z,33.46
2022-08-10T12:39:17.538Z,32.01
2022-08-10T12:41:54.150Z,33.76
2022-08-10T12:44:41.495Z,33.61
2022-08-10T12:47:19.235Z,32.47
2022-08-10T12:50:29.531Z,32.78
2022-08-10T12:52:51.354Z,33.68
2022-08-10T12:55:20.689Z,33.03
2022-08-10T12:57:53.355Z,34.14
2022-08-10T13:00:27.082Z,33.76
2022-08-10T13:02:55.996Z,33.47
2022-08-10T13:05:28.148Z,32.89
2022-08-10T13:08:27.640Z,33.00
2022-08-10T13:11:02.794Z,32.60
2022-08-10T13:13:34.724Z,33.28
2022-08-10T13:16:04.151Z,32.98
2022-08-10T13:18:35.958Z,33.18
2022-08-10T13:21:20.453Z,33.16
2022-08-10T13:24:04.029Z,31.61
2022-08-10T13:26:36.974Z,32.22
2022-08-10T13:29:12.899Z,33.12
2022-08-10T13:32:04.399Z,33.37
2022-08-10T13:34:43.393Z,33.30
2022-08-10T13:37:16.798Z,32.90
2022-08-10T13:39:59.207Z,33.05
2022-08-10T13:42:35.053Z,32.88
2022-08-10T13:45:10.328Z,33.44
2022-08-10T13:47:48.680Z,33.37
2022-08-10T13:50:33.318Z,33.01
2022-08-10T13:53:09.975Z,32.81
2022-08-10T13:55:53.951Z,32.43
2022-08-10T13:58:27.137Z,31.34
2022-08-10T14:00:59.942Z,32.44
2022-08-10T14:03:29.458Z,32.61
2022-08-10T14:05:59.730Z,31.95
2022-08-10T14:08:30.814Z,30.82
2022-08-10T14:11:10.851Z,32.69
2022-08-10T14:13:47.423Z,32.40
2022-08-10T14:16:16.654Z,31.09
2022-08-10T14:18:49.896Z,31.73
2022-08-10T14:21:18.184Z,32.11
2022-08-10T14:23:52.762Z,32.26
2022-08-10T14:26:26.628Z,32.22
2022-08-10T14:28:57.317Z,32.11
2022-08-10T14:31:33.455Z,30.73
2022-08-10T14:34:04.736Z,31.95
2022-08-10T14:36:42.130Z,32.17
2022-08-10T14:39:16.043Z,31.62
2022-08-10T14:42:01.177Z,31.12
2022-08-10T14:44:46.073Z,31.34
2022-08-10T14:47:53.110Z,31.89
2022-08-10T14:50:07.953Z,31.48
2022-08-10T14:52:44.386Z,31.67
2022-08-10T14:55:25.516Z,31.51
2022-08-10T14:58:19.925Z,31.43
2022-08-10T15:00:51.871Z,30.91
2022-08-10T15:03:59.492Z,30.80
2022-08-10T15:06:18.329Z,30.45
2022-08-10T15:08:48.228Z,31.08
2022-08-10T15:12:13.901Z,31.04
2022-08-10T15:14:38.782Z,30.85
2022-08-10T15:16:59.558Z,31.68
2022-08-10T15:20:02.162Z,31.32
2022-08-10T15:22:37.145Z,31.35
2022-08-10T15:25:18.661Z,31.00
2022-08-10T15:27:53.980Z,30.60
2022-08-10T15:30:32.104Z,30.13
2022-08-10T15:33:57.626Z,30.19
2022-08-10T15:36:33.262Z,30.55
2022-08-10T15:39:14.116Z,30.83
2022-08-10T15:42:01.682Z,30.21
2022-08-10T15:44:39.195Z,30.01
2022-08-10T15:47:12.104Z,30.86
2022-08-10T15:49:50.535Z,30.70
2022-08-10T15:52:59.794Z,30.40
2022-08-10T15:55:42.364Z,29.68
2022-08-10T15:58:09.904Z,30.17
2022-08-10T16:00:41.154Z,30.60
2022-08-10T16:03:18.040Z,31.02
2022-08-10T16:06:00.579Z,30.75
2022-08-10T16:08:56.405Z,30.75
2022-08-10T16:11:38.092Z,30.56
2022-08-10T16:14:18.269Z,30.15
2022-08-10T16:16:51.186Z,29.99
2022-08-10T16:19:25.393Z,29.69
2022-08-10T16:22:34.173Z,30.36
2022-08-10T16:24:52.336Z,30.62
2022-08-10T16:27:26.892Z,30.70
2022-08-10T16:30:00.725Z,30.83
2022-08-10T16:32:30.970Z,30.57
2022-08-10T16:35:08.866Z,29.95
2022-08-10T16:37:57.449Z,30.19
2022-08-10T16:40:28.791Z,30.31
2022-08-10T16:42:58.700Z,30.23
2022-08-10T16:45:32.027Z,30.13
2022-08-10T16:48:02.480Z,30.18
2022-08-10T16:50:36.523Z,30.48
2022-08-10T16:53:07.889Z,29.23
2022-08-10T16:55:48.972Z,29.26
2022-08-10T16:58:21.719Z,29.21
2022-08-10T17:00:51.289Z,29.79
2022-08-10T17:04:07.032Z,28.97
2022-08-10T17:06:22.048Z,29.19
2022-08-10T17:08:53.943Z,29.45
2022-08-10T17:11:24.460Z,29.65
2022-08-10T17:13:56.588Z,29.60
2022-08-10T17:16:26.847Z,29.38
2022-08-10T17:19:01.653Z,29.54
2022-08-10T17:21:38.612Z,29.56
2022-08-10T17:24:24.151Z,29.81
2022-08-10T17:26:52.896Z,29.60
2022-08-10T17:29:58.026Z,29.08
2022-08-10T17:32:29.415Z,28.70
2022-08-10T17:35:01.040Z,28.55
2022-08-10T17:37:37.346Z,28.81
2022-08-10T17:40:10.843Z,28.61
2022-08-10T17:42:40.814Z,28.68
2022-08-10T17:45:20.851Z,28.57
2022-08-10T17:48:08.069Z,29.00
2022-08-10T17:50:37.987Z,28.99
2022-08-10T17:53:14.470Z,29.06
2022-08-10T17:55:45.690Z,29.12
2022-08-10T17:58:16.187Z,28.89
2022-08-10T18:00:48.476Z,28.94
2022-08-10T18:03:25.061Z,28.51
2022-08-10T18:05:56.102Z,27.86
2022-08-10T18:08:30.140Z,27.72
2022-08-10T18:11:00.131Z,27.66
2022-08-10T18:13:55.968Z,27.92
2022-08-10T18:16:25.953Z,28.02
2022-08-10T18:19:00.682Z,27.72
2022-08-10T18:21:32.063Z,27.34
2022-08-10T18:24:07.522Z,27.23
2022-08-10T18:26:38.262Z,27.43
2022-08-10T18:29:11.726Z,27.30
2022-08-10T18:31:43.979Z,27.15
2022-08-10T18:34:13.181Z,26.87
2022-08-10T18:36:43.194Z,26.68
2022-08-10T18:39:15.492Z,26.60
2022-08-10T18:42:00.553Z,26.69
2022-08-10T18:44:37.560Z,26.61
2022-08-10T18:47:14.010Z,26.37
2022-08-10T18:49:54.970Z,26.36
2022-08-10T18:52:26.371Z,25.68
2022-08-10T18:55:04.651Z,25.59
2022-08-10T18:57:59.226Z,25.47
2022-08-10T19:00:33.026Z,25.32
2022-08-10T19:03:19.989Z,25.21
2022-08-10T19:06:08.376Z,25.09
2022-08-10T19:08:54.847Z,24.75
2022-08-10T19:11:37.771Z,24.51
2022-08-10T19:14:13.752Z,24.47
2022-08-10T19:16:48.847Z,24.51
2022-08-10T19:19:29.839Z,24.37
2022-08-10T19:22:07.184Z,24.50
2022-08-10T19:24:48.227Z,24.52
2022-08-10T19:27:43.384Z,24.38
2022-08-10T19:30:14.524Z,24.44
2022-08-10T19:32:53.373Z,24.21
2022-08-10T19:36:03.839Z,24.31
2022-08-10T19:38:33.403Z,24.35
2022-08-10T19:41:15.054Z,24.70
2022-08-10T19:44:00.465Z,25.31
2022-08-10T19:46:51.414Z,24.82
2022-08-10T19:49:45.890Z,24.56
2022-08-10T19:52:28.727Z,24.57
2022-08-10T19:55:12.425Z,24.48
2022-08-10T19:57:53.079Z,24.59
2022-08-10T20:00:27.040Z,24.54
2022-08-10T20:03:17.985Z,24.40
2022-08-10T20:06:19.242Z,24.26
2022-08-10T20:08:51.710Z,23.97
2022-08-10T20:11:46.426Z,23.39
2022-08-10T20:14:21.498Z,23.42
2022-08-10T20:16:56.214Z,23.12
2022-08-10T20:19:52.476Z,23.03
2022-08-10T20:22:29.902Z,22.98
2022-08-10T20:25:02.869Z,23.18
2022-08-10T20:28:00.368Z,23.22
2022-08-10T20:30:28.044Z,23.35
2022-08-10T20:33:01.624Z,23.17
2022-08-10T20:35:40.733Z,23.13
2022-08-10T20:38:11.201Z,23.49
2022-08-10T20:40:44.318Z,23.05
2022-08-10T20:43:21.223Z,22.54
2022-08-10T20:46:08.464Z,22.63
2022-08-10T20:48:45.112Z,22.91
2022-08-10T20:51:16.247Z,22.88
2022-08-10T20:53:50.828Z,22.62
2022-08-10T20:56:34.216Z,22.52
2022-08-10T20:59:14.358Z,22.69
2022-08-10T21:02:10.945Z,22.35
2022-08-10T21:04:52.546Z,22.78
2022-08-10T21:08:00.680Z,23.34
2022-08-10T21:10:39.222Z,23.38
2022-08-10T21:13:22.006Z,23.13
2022-08-10T21:16:02.050Z,22.75
2022-08-10T21:18:51.890Z,22.71
2022-08-10T21:24:33.358Z,21.98
2022-08-10T21:27:15.461Z,22.62
2022-08-10T21:29:55.893Z,22.59
2022-08-10T21:32:36.533Z,21.61
2022-08-10T21:35:20.027Z,21.77
2022-08-10T21:41:17.723Z,22.81
2022-08-10T21:44:11.412Z,22.10
2022-08-10T21:47:06.320Z,21.76
2022-08-10T21:50:07.252Z,22.36
2022-08-10T21:53:00.883Z,22.80
2022-08-10T21:56:02.669Z,21.06
2022-08-10T21:58:54.783Z,21.15
2022-08-10T22:01:51.453Z,20.75
2022-08-10T22:04:38.248Z,21.86
2022-08-10T22:07:27.532Z,22.05
2022-08-10T22:10:16.633Z,21.37
2022-08-10T22:13:08.510Z,21.09
2022-08-10T22:16:09.755Z,20.96
2022-08-10T22:19:02.921Z,21.15
2022-08-10T22:25:21.993Z,21.12
2022-08-10T22:28:17.566Z,20.69
2022-08-10T22:31:24.560Z,22.01
2022-08-10T22:31:24.935Z,22.57
2022-08-10T22:31:26.031Z,20.86
2022-08-10T22:31:30.233Z,20.68
2022-08-10T22:34:24.946Z,20.81
2022-08-10T22:37:23.789Z,21.07
2022-08-10T22:40:20.830Z,20.52
2022-08-10T22:43:12.149Z,20.52
2022-08-10T22:46:06.254Z,21.21
2022-08-10T22:48:59.806Z,20.87
2022-08-10T22:51:36.540Z,20.54
2022-08-10T22:54:31.984Z,20.35
2022-08-10T22:57:19.433Z,20.06
2022-08-10T22:59:50.247Z,20.54
2022-08-10T23:02:29.668Z,20.54
2022-08-10T23:05:03.156Z,20.99
2022-08-10T23:07:33.140Z,21.37
2022-08-10T23:10:05.574Z,21.33
2022-08-10T23:12:40.411Z,21.47
2022-08-10T23:15:37.071Z,21.52
2022-08-10T23:18:26.469Z,21.41
2022-08-10T23:20:57.819Z,21.53
2022-08-10T23:23:28.785Z,21.45
2022-08-10T23:26:00.339Z,21.43
2022-08-10T23:28:38.939Z,21.34
2022-08-10T23:31:59.149Z,21.18
2022-08-10T23:34:14.653Z,21.19
2022-08-10T23:36:43.662Z,20.41
2022-08-10T23:39:25.871Z,20.35
2022-08-10T23:42:03.113Z,20.55
2022-08-10T23:44:41.750Z,20.95
2022-08-10T23:47:13.425Z,20.56
2022-08-10T23:49:43.153Z,20.61
2022-08-10T23:52:13.895Z,20.57
2022-08-10T23:54:48.951Z,20.59
2022-08-10T23:57:19.583Z,20.56
2022-08-10T23:59:53.995Z,20.44
